Time;durP1;ratioP1;P1;durP2;ratioP2;P2;SDS_P1;SDS_P2;PMS_P1;PMS_P2;Temp;Humidity;BMP_temperature;BMP_pressure;BME280_temperature;BME280_humidity;BME280_pressure;Samples;Min_cycle;Max_cycle;Signal;HPM_P1;HPM_P2
2022/07/24 00:01:34;;;;;;;5.57;4.72;;;17.40;99.90;;;;;;5063489;28;20041;-66
2022/07/24 00:04:04;;;;;;;5.25;4.75;;;17.40;99.90;;;;;;5045258;28;20527;-66
2022/07/24 00:06:30;;;;;;;5.85;5.20;;;17.30;99.90;;;;;;5028839;28;20139;-66
2022/07/24 00:08:56;;;;;;;7.13;5.45;;;17.30;99.90;;;;;;5063232;28;20076;-66
2022/07/24 00:11:22;;;;;;;5.65;4.50;;;17.30;99.90;;;;;;5046167;28;20048;-66
2022/07/24 00:13:48;;;;;;;7.10;4.95;;;17.20;99.90;;;;;;5046474;28;20104;-66
2022/07/24 00:16:13;;;;;;;5.20;4.57;;;17.20;99.90;;;;;;5045584;28;20401;-66
2022/07/24 00:18:39;;;;;;;7.68;5.20;;;17.10;99.90;;;;;;5045381;28;20425;-66
2022/07/24 00:21:05;;;;;;;6.72;4.60;;;17.10;99.90;;;;;;5045231;28;20053;-66
2022/07/24 00:23:31;;;;;;;9.35;5.38;;;17.10;99.90;;;;;;5045005;28;20065;-66
2022/07/24 00:25:57;;;;;;;7.25;5.38;;;17.00;99.90;;;;;;5063311;28;20138;-66
2022/07/24 00:28:23;;;;;;;6.05;5.03;;;17.00;99.90;;;;;;5030064;28;20045;-66
2022/07/24 00:30:49;;;;;;;8.48;6.10;;;16.90;99.90;;;;;;5062808;28;20047;-66
2022/07/24 00:33:15;;;;;;;6.38;5.45;;;16.90;99.90;;;;;;5063158;28;20087;-66
2022/07/24 00:35:40;;;;;;;7.45;5.45;;;16.80;99.90;;;;;;5062799;28;20041;-66
2022/07/24 00:38:07;;;;;;;6.07;5.43;;;16.90;99.90;;;;;;5063434;28;20049;-66
2022/07/24 00:40:33;;;;;;;6.82;5.55;;;16.80;99.90;;;;;;5030702;28;20086;-66
2022/07/24 00:42:59;;;;;;;7.18;5.50;;;16.80;99.90;;;;;;5048752;28;20044;-66
2022/07/24 00:45:24;;;;;;;6.70;5.43;;;16.80;99.90;;;;;;5047460;28;20044;-66
2022/07/24 00:47:51;;;;;;;6.30;5.57;;;16.80;99.90;;;;;;5048812;28;20049;-66
2022/07/24 00:50:17;;;;;;;6.80;6.10;;;16.70;99.90;;;;;;5048671;28;20083;-66
2022/07/24 00:52:44;;;;;;;10.65;6.32;;;16.80;99.90;;;;;;5048550;28;20049;-66
2022/07/24 00:55:11;;;;;;;7.50;6.28;;;16.70;99.90;;;;;;5048390;28;20048;-66
2022/07/24 00:57:37;;;;;;;7.13;6.07;;;16.80;99.90;;;;;;5066868;28;20052;-66
2022/07/24 01:00:08;;;;;;;6.82;6.10;;;16.80;99.90;;;;;;5066155;28;20037;-66
2022/07/24 01:02:34;;;;;;;7.20;6.03;;;16.70;99.90;;;;;;5066622;28;20120;-66
2022/07/24 01:05:00;;;;;;;7.05;6.35;;;16.70;99.90;;;;;;5048025;28;20128;-66
2022/07/24 01:07:26;;;;;;;7.28;5.82;;;16.70;99.90;;;;;;5066425;28;20041;-66
2022/07/24 01:09:52;;;;;;;7.95;6.25;;;16.70;99.90;;;;;;5048052;28;20040;-66
2022/07/24 01:12:18;;;;;;;7.45;6.68;;;16.60;99.90;;;;;;5067236;28;20132;-66
2022/07/24 01:14:45;;;;;;;6.78;6.18;;;16.60;99.90;;;;;;5048246;28;20417;-67
2022/07/24 01:17:11;;;;;;;8.77;5.80;;;16.60;99.90;;;;;;5047864;28;20044;-66
2022/07/24 01:19:37;;;;;;;7.38;6.60;;;16.60;99.90;;;;;;5048353;28;20049;-66
2022/07/24 01:22:03;;;;;;;7.55;6.22;;;16.60;99.90;;;;;;5047969;28;20067;-66
2022/07/24 01:24:28;;;;;;;6.95;6.25;;;16.60;99.90;;;;;;5066896;28;20045;-66
2022/07/24 01:26:54;;;;;;;6.88;6.18;;;16.60;99.90;;;;;;5032826;28;20539;-66
2022/07/24 01:29:20;;;;;;;8.07;6.70;;;16.60;99.90;;;;;;5047958;28;20064;-66
2022/07/24 01:31:46;;;;;;;7.53;6.05;;;16.60;99.90;;;;;;5048169;28;20049;-66
2022/07/24 01:34:12;;;;;;;6.90;6.20;;;16.60;99.90;;;;;;5066088;28;20132;-66
2022/07/24 01:36:38;;;;;;;9.00;6.70;;;16.50;99.90;;;;;;5066242;28;20044;-66
2022/07/24 01:39:04;;;;;;;8.48;6.45;;;16.50;99.90;;;;;;5047703;28;20053;-66
2022/07/24 01:41:30;;;;;;;6.70;5.95;;;16.50;99.90;;;;;;5065532;28;20528;-66
2022/07/24 01:43:56;;;;;;;9.00;6.88;;;16.40;99.90;;;;;;5047514;28;20037;-66
2022/07/24 01:46:22;;;;;;;8.20;6.18;;;16.40;99.90;;;;;;5047717;28;20052;-66
2022/07/24 01:48:48;;;;;;;7.43;6.70;;;16.40;99.90;;;;;;5047587;28;20064;-66
2022/07/24 01:51:14;;;;;;;9.05;6.57;;;16.40;99.90;;;;;;5047800;28;20040;-66
2022/07/24 01:53:40;;;;;;;7.15;6.30;;;16.40;99.90;;;;;;5030445;28;20032;-66
2022/07/24 01:56:06;;;;;;;7.75;6.85;;;16.40;99.90;;;;;;5047442;28;20516;-66
2022/07/24 01:58:31;;;;;;;6.47;5.88;;;16.40;99.90;;;;;;5064923;28;20116;-66
2022/07/24 02:00:57;;;;;;;7.40;6.57;;;16.40;99.90;;;;;;5047781;28;20111;-66
2022/07/24 02:03:23;;;;;;;6.68;6.03;;;16.30;99.90;;;;;;5065731;28;20497;-66
2022/07/24 02:05:48;;;;;;;11.07;7.35;;;16.30;99.90;;;;;;5047769;28;20052;-66
2022/07/24 02:08:14;;;;;;;11.23;7.35;;;16.20;99.90;;;;;;5047097;28;20044;-66
2022/07/24 02:10:40;;;;;;;7.63;6.75;;;16.10;99.90;;;;;;5047134;28;20385;-66
2022/07/24 02:13:06;;;;;;;8.32;6.70;;;16.00;99.90;;;;;;5065102;28;20079;-66
2022/07/24 02:15:33;;;;;;;7.00;6.25;;;16.10;99.90;;;;;;5045052;28;20093;-66
2022/07/24 02:18:00;;;;;;;8.57;6.82;;;16.10;99.90;;;;;;5065075;28;20044;-66
2022/07/24 02:20:27;;;;;;;7.93;7.13;;;16.10;99.90;;;;;;5063507;28;20120;-67
2022/07/24 02:22:53;;;;;;;6.97;6.25;;;16.10;99.90;;;;;;5041655;28;20109;-66
2022/07/24 02:25:19;;;;;;;8.00;7.20;;;16.00;99.90;;;;;;5046965;28;20049;-66
2022/07/24 02:27:45;;;;;;;9.00;6.28;;;16.00;99.90;;;;;;5064784;28;20115;-66
2022/07/24 02:30:16;;;;;;;7.95;7.07;;;16.00;99.90;;;;;;5047032;28;20152;-66
2022/07/24 02:32:42;;;;;;;7.53;5.93;;;15.90;99.90;;;;;;5031018;28;20043;-66
2022/07/24 02:35:09;;;;;;;10.40;7.22;;;15.80;99.90;;;;;;5064591;28;20112;-66
2022/07/24 02:37:39;;;;;;;7.88;6.35;;;15.80;99.90;;;;;;5013417;28;20045;-66
2022/07/24 02:40:07;;;;;;;8.63;6.88;;;15.70;99.90;;;;;;5064379;28;20059;-66
2022/07/24 02:42:33;;;;;;;8.40;6.25;;;15.60;99.90;;;;;;5047585;28;20040;-66
2022/07/24 02:44:58;;;;;;;9.90;6.60;;;15.60;99.90;;;;;;5029907;28;20091;-66
2022/07/24 02:47:24;;;;;;;8.85;7.10;;;15.50;99.90;;;;;;5046510;28;20402;-66
2022/07/24 02:49:50;;;;;;;8.23;7.43;;;15.50;99.90;;;;;;5031195;28;20059;-66
2022/07/24 02:52:15;;;;;;;8.68;7.60;;;15.50;99.90;;;;;;5046571;28;20101;-66
2022/07/24 02:54:41;;;;;;;8.18;7.05;;;15.50;99.90;;;;;;5046041;28;20071;-66
2022/07/24 02:57:07;;;;;;;10.45;7.43;;;15.50;99.90;;;;;;5046002;28;20048;-66
2022/07/24 02:59:32;;;;;;;7.80;6.50;;;15.60;99.90;;;;;;5030059;28;20099;-66
2022/07/24 03:01:58;;;;;;;13.05;7.88;;;15.60;99.90;;;;;;5064739;28;20082;-66
2022/07/24 03:04:24;;;;;;;7.72;6.82;;;15.50;99.90;;;;;;5045393;28;20565;-66
2022/07/24 03:06:50;;;;;;;10.27;7.05;;;15.50;99.90;;;;;;5045823;28;20047;-66
2022/07/24 03:09:15;;;;;;;8.85;6.80;;;15.30;99.90;;;;;;5046144;28;20154;-66
2022/07/24 03:11:41;;;;;;;8.45;6.57;;;15.20;99.90;;;;;;5063575;28;20036;-66
2022/07/24 03:14:07;;;;;;;8.93;7.22;;;15.10;99.90;;;;;;5046212;28;20045;-66
2022/07/24 03:16:32;;;;;;;10.23;7.53;;;15.00;99.90;;;;;;5064938;28;20061;-66
2022/07/24 03:18:58;;;;;;;9.82;6.90;;;14.90;99.90;;;;;;5064387;28;20036;-66
2022/07/24 03:21:24;;;;;;;8.20;6.50;;;14.80;99.90;;;;;;5044123;28;20056;-66
2022/07/24 03:23:50;;;;;;;12.30;7.10;;;14.80;99.90;;;;;;5065211;28;20128;-66
2022/07/24 03:26:15;;;;;;;13.00;7.93;;;14.70;99.90;;;;;;5063536;28;20044;-66
2022/07/24 03:28:41;;;;;;;9.55;7.13;;;14.70;99.90;;;;;;5046079;28;20041;-66
2022/07/24 03:31:07;;;;;;;10.68;7.60;;;14.70;99.90;;;;;;5063643;28;20044;-66
2022/07/24 03:33:33;;;;;;;9.48;7.38;;;14.70;99.90;;;;;;5063386;28;20045;-66
2022/07/24 03:35:59;;;;;;;10.65;7.80;;;14.70;99.90;;;;;;5063720;28;20048;-66
2022/07/24 03:38:25;;;;;;;10.05;7.72;;;14.80;99.90;;;;;;5076675;28;20079;-66
2022/07/24 03:40:51;;;;;;;8.07;7.25;;;14.80;99.90;;;;;;5064977;28;20550;-66
2022/07/24 03:43:17;;;;;;;9.50;7.20;;;14.80;99.90;;;;;;5065631;28;20045;-66
2022/07/24 03:45:43;;;;;;;11.50;7.90;;;14.90;99.90;;;;;;5049060;28;20048;-66
2022/07/24 03:48:09;;;;;;;9.57;7.10;;;14.80;99.90;;;;;;5065389;28;20087;-66
2022/07/24 03:50:34;;;;;;;8.50;6.75;;;14.90;99.90;;;;;;5083661;28;20044;-66
2022/07/24 03:53:00;;;;;;;7.57;6.53;;;15.00;99.90;;;;;;5065214;28;20395;-66
2022/07/24 03:55:26;;;;;;;11.00;7.13;;;15.10;99.90;;;;;;5083089;28;20040;-66
2022/07/24 03:57:52;;;;;;;9.43;7.25;;;15.20;99.90;;;;;;5065315;28;20063;-66
2022/07/24 04:00:18;;;;;;;8.55;6.80;;;15.30;99.90;;;;;;5065544;28;20104;-66
2022/07/24 04:02:43;;;;;;;10.88;6.78;;;15.40;99.90;;;;;;5065497;28;20135;-66
2022/07/24 04:05:09;;;;;;;10.75;7.28;;;15.40;99.90;;;;;;5065320;28;20522;-66
2022/07/24 04:07:36;;;;;;;7.63;6.60;;;15.60;99.90;;;;;;5065255;28;20044;-66
2022/07/24 04:10:03;;;;;;;9.20;6.95;;;15.60;99.90;;;;;;5048746;28;20048;-66
2022/07/24 04:12:29;;;;;;;9.07;6.80;;;15.60;99.90;;;;;;5065452;28;20060;-66
2022/07/24 04:14:54;;;;;;;9.35;7.00;;;15.60;99.90;;;;;;5084523;28;20056;-66
2022/07/24 04:17:20;;;;;;;6.90;6.05;;;15.70;99.90;;;;;;5087204;28;20497;-66
2022/07/24 04:19:45;;;;;;;7.65;6.80;;;15.70;99.90;;;;;;5069029;28;20052;-66
2022/07/24 04:22:11;;;;;;;8.23;6.72;;;15.70;99.90;;;;;;5069110;28;20044;-66
2022/07/24 04:24:37;;;;;;;10.23;7.13;;;15.80;99.90;;;;;;5069104;28;20063;-66
2022/07/24 04:27:03;;;;;;;11.02;7.10;;;15.80;99.90;;;;;;5069451;28;20070;-66
2022/07/24 04:29:28;;;;;;;10.15;6.80;;;15.80;99.90;;;;;;5069390;28;20123;-66
2022/07/24 04:31:54;;;;;;;9.13;7.45;;;15.80;99.90;;;;;;5053086;28;20068;-66
2022/07/24 04:34:20;;;;;;;9.65;7.00;;;15.80;99.90;;;;;;5069351;28;20128;-66
2022/07/24 04:36:45;;;;;;;9.02;7.15;;;15.80;99.90;;;;;;5069980;28;20045;-66
2022/07/24 04:39:11;;;;;;;8.80;7.22;;;15.80;99.90;;;;;;5051456;28;20064;-66
2022/07/24 04:41:37;;;;;;;8.27;7.38;;;15.80;99.90;;;;;;5048856;28;20094;-66
2022/07/24 04:44:03;;;;;;;10.32;6.57;;;15.80;99.90;;;;;;5048541;28;20065;-66
2022/07/24 04:46:28;;;;;;;12.73;7.07;;;15.80;99.90;;;;;;5067274;28;20043;-66
2022/07/24 04:48:54;;;;;;;8.32;6.70;;;15.80;99.90;;;;;;5049442;28;20060;-66
2022/07/24 04:51:20;;;;;;;7.13;6.43;;;15.90;99.90;;;;;;5048523;28;20044;-66
2022/07/24 04:53:46;;;;;;;9.32;7.07;;;15.90;99.90;;;;;;5066631;28;20049;-66
2022/07/24 04:56:12;;;;;;;8.57;7.03;;;15.90;99.90;;;;;;5048062;28;20104;-66
2022/07/24 04:58:37;;;;;;;10.60;7.18;;;15.90;99.90;;;;;;5037532;28;20076;-66
2022/07/24 05:01:03;;;;;;;8.82;6.82;;;15.90;99.90;;;;;;5049911;28;20055;-66
2022/07/24 05:03:29;;;;;;;12.98;7.50;;;15.90;99.90;;;;;;5049001;28;20096;-66
2022/07/24 05:05:55;;;;;;;8.55;6.40;;;15.90;99.90;;;;;;5048381;28;20435;-66
2022/07/24 05:08:20;;;;;;;10.48;7.13;;;16.00;99.90;;;;;;5044607;28;20041;-66
2022/07/24 05:10:46;;;;;;;9.35;7.07;;;16.00;99.90;;;;;;5066059;28;20504;-66
2022/07/24 05:13:12;;;;;;;9.35;7.43;;;16.10;99.90;;;;;;5066728;28;20481;-66
2022/07/24 05:15:37;;;;;;;8.93;7.05;;;16.20;99.90;;;;;;5049061;28;20040;-66
2022/07/24 05:18:03;;;;;;;7.40;6.22;;;16.20;99.90;;;;;;5048253;28;20052;-66
2022/07/24 05:20:29;;;;;;;7.88;6.72;;;16.30;99.90;;;;;;5065775;28;20049;-66
2022/07/24 05:22:55;;;;;;;8.00;6.53;;;16.40;99.90;;;;;;5047538;28;20044;-66
2022/07/24 05:25:20;;;;;;;7.15;6.50;;;16.40;99.90;;;;;;5047491;28;20100;-66
2022/07/24 05:27:46;;;;;;;9.52;6.75;;;16.50;99.90;;;;;;5046845;28;20048;-66
2022/07/24 05:30:12;;;;;;;8.73;7.03;;;16.60;99.90;;;;;;5047996;28;20080;-66
2022/07/24 05:32:38;;;;;;;7.72;6.93;;;16.70;99.90;;;;;;5031506;28;20074;-66
2022/07/24 05:35:04;;;;;;;8.25;6.60;;;16.70;99.90;;;;;;5048584;28;20052;-66
2022/07/24 05:37:30;;;;;;;8.10;6.50;;;16.80;99.90;;;;;;5050023;28;20053;-66
2022/07/24 05:39:56;;;;;;;9.80;7.53;;;16.90;99.90;;;;;;5047344;28;20068;-66
2022/07/24 05:42:21;;;;;;;7.90;6.82;;;16.90;99.90;;;;;;5048101;28;20102;-66
2022/07/24 05:44:47;;;;;;;7.55;6.30;;;17.10;99.90;;;;;;5046606;28;20049;-66
2022/07/24 05:47:13;;;;;;;9.10;7.55;;;17.20;99.90;;;;;;5065295;28;20045;-66
2022/07/24 05:49:38;;;;;;;9.70;7.15;;;17.30;99.90;;;;;;5048027;28;20041;-66
2022/07/24 05:52:04;;;;;;;9.40;7.47;;;17.40;99.90;;;;;;5066940;28;20076;-66
2022/07/24 05:54:30;;;;;;;11.23;7.63;;;17.50;99.90;;;;;;5065546;28;20071;-66
2022/07/24 05:56:56;;;;;;;9.88;7.47;;;17.60;99.90;;;;;;5048097;28;20053;-66
2022/07/24 05:59:21;;;;;;;8.43;7.40;;;17.60;99.90;;;;;;5047653;28;20395;-66
2022/07/24 06:01:47;;;;;;;9.85;7.72;;;17.70;99.90;;;;;;5044344;28;20049;-66
2022/07/24 06:04:13;;;;;;;10.00;8.13;;;17.80;99.90;;;;;;5065056;28;20086;-66
2022/07/24 06:06:38;;;;;;;12.75;7.68;;;17.90;99.90;;;;;;5048043;28;20037;-66
2022/07/24 06:09:04;;;;;;;11.18;8.50;;;18.00;99.90;;;;;;5031785;28;20037;-66
2022/07/24 06:11:30;;;;;;;10.20;8.45;;;18.20;99.90;;;;;;5047464;28;20099;-66
2022/07/24 06:13:56;;;;;;;10.55;8.20;;;18.40;99.90;;;;;;5047547;28;20033;-66
2022/07/24 06:16:21;;;;;;;9.60;8.50;;;18.50;99.90;;;;;;5030579;28;20052;-66
2022/07/24 06:18:47;;;;;;;11.88;9.27;;;18.60;99.90;;;;;;5064895;28;20112;-66
2022/07/24 06:21:13;;;;;;;12.57;9.57;;;18.70;99.90;;;;;;5047502;28;20055;-66
2022/07/24 06:23:38;;;;;;;11.52;8.57;;;18.70;99.90;;;;;;5047124;28;20095;-66
2022/07/24 06:26:04;;;;;;;13.25;10.05;;;18.80;99.90;;;;;;5064774;28;20119;-66
2022/07/24 06:28:30;;;;;;;11.38;9.98;;;18.90;99.90;;;;;;5064844;28;20053;-66
2022/07/24 06:30:57;;;;;;;13.88;10.35;;;18.90;99.90;;;;;;5048019;28;20049;-66
2022/07/24 06:33:22;;;;;;;13.35;10.32;;;19.00;99.90;;;;;;5047711;28;20112;-66
2022/07/24 06:35:48;;;;;;;13.13;10.10;;;19.00;99.90;;;;;;5046936;28;20088;-66
2022/07/24 06:38:15;;;;;;;13.73;9.77;;;19.00;99.90;;;;;;5046434;28;20053;-66
2022/07/24 06:40:41;;;;;;;12.70;11.05;;;19.10;99.90;;;;;;5045907;28;20080;-66
2022/07/24 06:43:07;;;;;;;12.45;10.52;;;19.10;99.90;;;;;;5048172;28;20060;-66
2022/07/24 06:45:33;;;;;;;15.65;12.13;;;19.10;99.90;;;;;;5065515;28;20093;-66
2022/07/24 06:48:00;;;;;;;11.45;9.50;;;19.20;99.90;;;;;;5047739;28;20044;-66
2022/07/24 06:50:26;;;;;;;16.33;11.35;;;19.30;99.90;;;;;;5047586;28;20056;-66
2022/07/24 06:52:52;;;;;;;16.27;13.07;;;19.30;99.90;;;;;;5047749;28;20044;-66
2022/07/24 06:55:18;;;;;;;15.60;12.75;;;19.40;99.90;;;;;;5029488;28;20332;-66
2022/07/24 06:57:44;;;;;;;17.13;12.18;;;19.50;99.90;;;;;;5046522;28;20044;-66
2022/07/24 07:00:11;;;;;;;16.27;13.85;;;19.50;99.90;;;;;;5063881;28;20048;-66
2022/07/24 07:02:37;;;;;;;18.75;14.57;;;19.60;99.90;;;;;;5064307;28;20092;-66
2022/07/24 07:05:05;;;;;;;16.80;14.02;;;19.70;99.90;;;;;;5046198;28;20033;-66
2022/07/24 07:07:31;;;;;;;19.50;13.43;;;19.70;99.90;;;;;;5064253;28;20079;-66
2022/07/24 07:09:57;;;;;;;19.88;13.95;;;19.70;99.90;;;;;;5063832;28;20436;-66
2022/07/24 07:12:23;;;;;;;19.25;15.23;;;19.70;99.90;;;;;;5045935;28;20037;-66
2022/07/24 07:14:48;;;;;;;19.85;15.45;;;19.60;99.90;;;;;;5063452;28;20074;-66
2022/07/24 07:17:15;;;;;;;17.08;15.10;;;19.60;99.90;;;;;;5047039;28;20088;-66
2022/07/24 07:19:42;;;;;;;20.92;15.50;;;19.70;99.90;;;;;;5046625;28;20049;-66
2022/07/24 07:22:09;;;;;;;23.35;16.13;;;19.70;99.90;;;;;;5064401;28;20037;-66
2022/07/24 07:24:34;;;;;;;21.00;15.10;;;19.80;99.90;;;;;;5046184;28;20057;-66
2022/07/24 07:27:00;;;;;;;23.27;16.92;;;19.90;99.90;;;;;;5063740;28;20048;-66
2022/07/24 07:29:26;;;;;;;18.52;15.98;;;20.10;99.90;;;;;;5045985;28;20074;-66
2022/07/24 07:31:52;;;;;;;19.85;17.25;;;20.10;99.90;;;;;;5045669;28;20128;-66
2022/07/24 07:34:18;;;;;;;20.98;15.75;;;20.30;99.90;;;;;;5046676;28;20083;-66
2022/07/24 07:36:44;;;;;;;19.52;16.10;;;20.30;99.90;;;;;;5062624;28;20075;-66
2022/07/24 07:39:09;;;;;;;21.20;17.00;;;20.50;99.90;;;;;;5063105;28;20053;-66
2022/07/24 07:41:35;;;;;;;23.23;15.88;;;20.50;99.90;;;;;;5063579;28;20124;-66
2022/07/24 07:44:01;;;;;;;22.65;16.90;;;20.60;99.90;;;;;;5045679;28;20053;-66
2022/07/24 07:46:27;;;;;;;20.33;16.20;;;20.70;99.90;;;;;;5045707;28;20040;-66
2022/07/24 07:48:53;;;;;;;21.67;15.90;;;20.80;99.90;;;;;;5045603;28;20433;-66
2022/07/24 07:51:19;;;;;;;23.13;16.98;;;20.80;99.90;;;;;;5035019;28;20465;-66
2022/07/24 07:53:45;;;;;;;21.45;17.20;;;20.90;99.90;;;;;;5053141;28;20083;-66
2022/07/24 07:56:11;;;;;;;24.33;17.25;;;21.10;99.90;;;;;;5048691;28;20050;-66
2022/07/24 07:58:37;;;;;;;21.10;16.45;;;21.20;99.90;;;;;;5035930;28;20053;-66
2022/07/24 08:01:02;;;;;;;21.90;16.92;;;21.30;99.90;;;;;;5069181;28;20045;-66
2022/07/24 08:03:28;;;;;;;22.08;17.65;;;21.40;99.90;;;;;;5052210;28;20106;-66
2022/07/24 08:05:54;;;;;;;21.38;16.42;;;21.50;99.90;;;;;;5052451;28;20060;-66
2022/07/24 08:08:20;;;;;;;21.10;16.85;;;21.50;99.90;;;;;;5052288;28;20043;-66
2022/07/24 08:10:45;;;;;;;20.45;15.07;;;21.70;99.90;;;;;;5067849;28;20140;-66
2022/07/24 08:13:12;;;;;;;21.38;16.67;;;21.70;99.90;;;;;;5052173;28;20059;-66
2022/07/24 08:15:38;;;;;;;21.42;17.02;;;21.60;99.90;;;;;;5052374;28;20056;-66
2022/07/24 08:18:04;;;;;;;21.67;16.60;;;21.70;99.90;;;;;;5035696;28;20445;-66
2022/07/24 08:20:30;;;;;;;19.00;15.70;;;21.70;99.90;;;;;;5052873;28;20106;-66
2022/07/24 08:22:56;;;;;;;24.13;18.23;;;21.80;99.90;;;;;;5052132;28;20041;-66
2022/07/24 08:25:21;;;;;;;22.13;17.08;;;21.90;99.90;;;;;;5051965;28;20041;-66
2022/07/24 08:27:48;;;;;;;20.98;14.75;;;22.00;99.90;;;;;;5071082;28;20076;-66
2022/07/24 08:30:14;;;;;;;19.08;14.75;;;22.00;99.90;;;;;;5035512;28;20450;-66
2022/07/24 08:32:40;;;;;;;17.85;14.32;;;22.10;99.90;;;;;;5069778;28;20049;-66
2022/07/24 08:35:06;;;;;;;20.40;15.60;;;22.10;99.90;;;;;;5070921;28;20079;-66
2022/07/24 08:37:42;;;;;;;14.90;11.88;;;22.10;99.90;;;;;;5054457;28;20045;-66
2022/07/24 08:40:10;;;;;;;15.10;13.23;;;22.20;99.90;;;;;;5052940;28;20532;-66
2022/07/24 08:42:37;;;;;;;14.45;10.65;;;22.30;99.90;;;;;;5035516;28;20045;-66
2022/07/24 08:45:06;;;;;;;14.10;9.75;;;22.40;99.90;;;;;;5070197;28;20045;-66
2022/07/24 08:47:32;;;;;;;12.10;9.82;;;22.50;99.90;;;;;;5053128;28;20041;-66
2022/07/24 08:49:59;;;;;;;12.15;9.10;;;22.60;99.90;;;;;;5052950;28;20068;-66
2022/07/24 08:52:26;;;;;;;12.00;8.35;;;22.60;99.90;;;;;;5052822;28;20075;-66
2022/07/24 08:54:52;;;;;;;11.73;7.68;;;22.80;99.90;;;;;;5069723;28;20048;-66
2022/07/24 08:57:18;;;;;;;10.93;7.55;;;22.90;99.90;;;;;;5051831;28;20101;-66
2022/07/24 08:59:44;;;;;;;9.38;6.72;;;23.00;99.90;;;;;;5051888;28;20079;-66
2022/07/24 09:02:10;;;;;;;8.95;6.10;;;23.10;99.90;;;;;;5049044;28;20041;-66
2022/07/24 09:04:42;;;;;;;7.38;5.47;;;23.20;99.90;;;;;;5049311;28;20170;-66
2022/07/24 09:07:16;;;;;;;6.05;4.43;;;23.30;99.90;;;;;;5049656;28;20072;-66
2022/07/24 09:09:42;;;;;;;7.90;4.95;;;23.30;99.90;;;;;;5048403;28;20045;-66
2022/07/24 09:12:09;;;;;;;5.70;4.82;;;23.10;99.90;;;;;;5048731;28;20193;-66
2022/07/24 09:14:38;;;;;;;7.07;5.10;;;23.30;99.90;;;;;;5066801;28;20080;-66
2022/07/24 09:17:07;;;;;;;6.37;4.37;;;23.30;99.90;;;;;;5048449;28;20114;-66
2022/07/24 09:19:46;;;;;;;5.22;4.20;;;23.30;99.90;;;;;;5066784;28;20307;-66
2022/07/24 09:22:37;;;;;;;6.03;3.93;;;23.30;99.90;;;;;;5048319;28;20048;-66
2022/07/24 09:25:06;;;;;;;7.03;4.93;;;23.20;99.90;;;;;;5061581;28;20057;-66
2022/07/24 09:27:33;;;;;;;5.93;4.17;;;23.20;99.90;;;;;;5048908;28;20049;-66
2022/07/24 09:29:59;;;;;;;7.50;4.70;;;23.30;99.90;;;;;;5065930;28;20393;-66
2022/07/24 09:32:25;;;;;;;5.38;4.53;;;23.20;99.90;;;;;;5049023;28;20052;-66
2022/07/24 09:34:52;;;;;;;4.97;4.15;;;23.20;99.90;;;;;;5048163;28;20402;-66
2022/07/24 09:37:19;;;;;;;4.70;4.20;;;23.20;99.90;;;;;;5048383;28;20169;-66
2022/07/24 09:39:46;;;;;;;5.40;4.47;;;23.20;99.90;;;;;;5046946;28;20057;-66
2022/07/24 09:42:12;;;;;;;5.60;4.50;;;23.30;99.90;;;;;;5065493;28;20053;-66
2022/07/24 09:44:39;;;;;;;5.00;4.00;;;23.20;99.90;;;;;;5047648;28;20059;-66
2022/07/24 09:47:10;;;;;;;6.28;4.10;;;23.30;99.90;;;;;;5066813;28;20071;-66
2022/07/24 09:49:37;;;;;;;5.68;4.57;;;23.40;99.90;;;;;;5049001;28;20520;-66
2022/07/24 09:52:07;;;;;;;6.18;4.07;;;23.50;99.90;;;;;;5043254;28;20063;-66
2022/07/24 09:54:35;;;;;;;4.95;4.03;;;23.60;99.90;;;;;;5042292;28;20041;-66
2022/07/24 09:57:22;;;;;;;6.68;3.58;;;23.70;99.90;;;;;;5047811;28;20108;-66
2022/07/24 09:59:51;;;;;;;5.60;4.68;;;23.80;99.90;;;;;;5047768;28;20063;-66
2022/07/24 10:02:19;;;;;;;5.00;4.13;;;23.80;99.90;;;;;;5047670;28;20393;-66
2022/07/24 10:04:47;;;;;;;5.67;4.40;;;23.80;99.90;;;;;;5048023;28;20055;-66
2022/07/24 10:07:14;;;;;;;4.75;4.25;;;23.70;99.90;;;;;;5047359;28;20045;-66
2022/07/24 10:09:46;;;;;;;3.95;3.03;;;23.80;99.90;;;;;;5065037;28;20053;-67
2022/07/24 10:12:21;;;;;;;5.15;3.25;;;23.90;99.90;;;;;;5044511;28;20048;-67
2022/07/24 10:14:50;;;;;;;4.20;2.80;;;24.10;99.90;;;;;;5065336;28;20045;-66
2022/07/24 10:17:16;;;;;;;3.90;3.20;;;24.20;99.90;;;;;;5047268;28;20100;-66
2022/07/24 10:19:47;;;;;;;4.43;3.22;;;24.30;99.90;;;;;;5047141;28;20076;-66
2022/07/24 10:22:19;;;;;;;3.53;3.03;;;24.30;99.90;;;;;;5046513;28;20041;-67
2022/07/24 10:25:03;;;;;;;5.30;3.50;;;24.40;99.90;;;;;;5047815;28;20132;-67
2022/07/24 10:27:34;;;;;;;4.32;2.85;;;24.50;99.90;;;;;;5065860;28;20110;-66
2022/07/24 10:30:06;;;;;;;4.45;3.00;;;24.60;99.90;;;;;;5047333;28;20401;-66
2022/07/24 10:32:34;;;;;;;3.85;2.83;;;24.70;99.90;;;;;;5064663;28;20057;-66
2022/07/24 10:35:12;;;;;;;5.57;2.80;;;24.70;99.90;;;;;;5064514;28;20047;-67
2022/07/24 10:37:42;;;;;;;6.07;3.13;;;24.80;99.90;;;;;;5046620;28;20056;-67
2022/07/24 10:40:11;;;;;;;5.07;3.05;;;24.90;99.90;;;;;;5066565;28;20540;-66
2022/07/24 10:43:05;;;;;;;3.00;2.67;;;25.10;99.90;;;;;;5062375;28;20459;-67
2022/07/24 10:45:32;;;;;;;4.05;3.38;;;25.30;99.90;;;;;;5066371;28;20523;-67
2022/07/24 10:48:18;;;;;;;5.18;2.75;;;25.40;99.90;;;;;;5067143;28;20044;-67
2022/07/24 10:51:08;;;;;;;4.70;2.85;;;25.30;99.90;;;;;;5063996;28;20055;-67
2022/07/24 10:53:36;;;;;;;3.30;2.90;;;25.40;99.90;;;;;;5064647;28;20045;-67
2022/07/24 10:56:28;;;;;;;3.60;3.10;;;25.20;99.90;;;;;;5067377;28;20048;-67
2022/07/24 10:59:12;;;;;;;3.63;3.15;;;25.10;99.90;;;;;;5066483;28;20500;-67
2022/07/24 11:01:47;;;;;;;4.25;3.05;;;25.10;99.90;;;;;;5084286;28;20048;-67
2022/07/24 11:04:31;;;;;;;4.22;3.25;;;25.30;99.90;;;;;;5066403;28;20088;-67
2022/07/24 11:07:08;;;;;;;5.45;3.00;;;25.30;99.90;;;;;;5066883;28;20076;-66
2022/07/24 11:09:59;;;;;;;6.35;3.30;;;25.40;99.90;;;;;;5084478;28;20041;-67
2022/07/24 11:12:30;;;;;;;4.68;3.00;;;25.70;99.90;;;;;;5065997;28;20045;-67
2022/07/24 11:17:50;;;;;;;3.70;3.03;;;25.90;99.90;;;;;;5066905;28;20052;-67
2022/07/24 11:20:21;;;;;;;5.18;3.75;;;25.90;99.90;;;;;;5067057;28;20044;-67
2022/07/24 11:22:53;;;;;;;4.43;3.10;;;25.80;99.90;;;;;;5066954;28;20039;-67
2022/07/24 11:25:21;;;;;;;4.32;2.75;;;25.90;99.90;;;;;;5084482;28;20063;-67
2022/07/24 11:27:51;;;;;;;8.48;3.00;;;26.00;99.90;;;;;;5066069;28;20484;-67
2022/07/24 11:30:17;;;;;;;;;;;26.10;99.90;;;;;;5065881;28;20079;-67
2022/07/24 11:32:44;;;;;;;5.57;3.33;;;26.10;99.90;;;;;;5083797;28;19921;-67
2022/07/24 11:35:10;;;;;;;6.13;3.20;;;26.00;99.90;;;;;;5083427;28;20064;-67
2022/07/24 11:37:38;;;;;;;6.30;3.20;;;26.00;99.90;;;;;;5065749;28;20047;-66
2022/07/24 11:40:07;;;;;;;4.40;3.07;;;26.00;99.90;;;;;;5066842;28;20057;-67
2022/07/24 11:42:34;;;;;;;4.30;3.15;;;25.90;99.90;;;;;;5066228;28;20055;-67
2022/07/24 11:45:00;;;;;;;4.00;3.42;;;26.00;99.90;;;;;;5044779;28;20063;-66
2022/07/24 11:47:27;;;;;;;6.30;3.47;;;26.00;99.90;;;;;;5065831;28;20078;-67
2022/07/24 11:49:55;;;;;;;5.85;3.25;;;26.10;99.90;;;;;;5078985;28;20059;-67
2022/07/24 11:52:27;;;;;;;3.70;3.00;;;26.20;99.90;;;;;;5066623;28;20512;-66
2022/07/24 11:54:57;;;;;;;4.15;3.33;;;26.30;99.90;;;;;;5083220;28;20072;-67
2022/07/24 11:57:52;;;;;;;3.90;3.13;;;26.40;99.90;;;;;;5066200;28;20036;-67
2022/07/24 12:00:21;;;;;;;5.95;3.28;;;26.40;99.90;;;;;;5065517;28;20052;-67
2022/07/24 12:02:58;;;;;;;4.23;2.90;;;26.30;99.90;;;;;;5065522;28;20084;-67
2022/07/24 12:05:30;;;;;;;4.47;3.42;;;26.30;99.90;;;;;;5065659;28;20045;-67
2022/07/24 12:07:57;;;;;;;3.88;2.97;;;26.40;99.90;;;;;;5065669;28;20059;-67
2022/07/24 12:10:24;;;;;;;4.25;3.53;;;26.50;99.90;;;;;;5065923;28;20120;-67
2022/07/24 12:12:54;;;;;;;4.20;2.92;;;26.50;99.90;;;;;;5066212;28;20049;-67
2022/07/24 12:15:21;;;;;;;6.68;3.13;;;26.70;99.90;;;;;;5065732;28;20064;-67
2022/07/24 12:18:06;;;;;;;4.95;3.50;;;26.80;99.90;;;;;;5065406;28;20052;-67
2022/07/24 12:20:40;;;;;;;11.27;3.67;;;26.80;99.90;;;;;;5060868;28;20045;-67
2022/07/24 12:23:09;;;;;;;5.93;3.25;;;26.80;99.90;;;;;;5083393;28;20037;-67
2022/07/24 12:25:35;;;;;;;7.40;3.35;;;26.80;99.90;;;;;;5065322;28;20091;-67
2022/07/24 12:28:18;;;;;;;5.35;3.40;;;26.90;99.90;;;;;;5047493;28;20504;-67
2022/07/24 12:30:49;;;;;;;4.43;3.10;;;26.90;99.90;;;;;;5059033;28;20048;-67
2022/07/24 12:33:15;;;;;;;3.88;3.03;;;26.90;99.90;;;;;;5083125;28;20098;-67
2022/07/24 12:35:56;;;;;;;4.90;3.25;;;26.90;99.90;;;;;;5083692;28;20051;-67
2022/07/24 12:38:26;;;;;;;4.70;3.58;;;27.00;99.90;;;;;;5064185;28;20053;-67
2022/07/24 12:41:01;;;;;;;5.10;3.58;;;27.20;99.90;;;;;;5075273;28;20052;-67
2022/07/24 12:43:28;;;;;;;4.15;3.35;;;27.30;99.90;;;;;;5075665;28;20544;-67
2022/07/24 12:46:10;;;;;;;4.47;3.22;;;27.30;99.90;;;;;;5068779;28;20082;-67
2022/07/24 12:48:36;;;;;;;4.32;3.35;;;27.40;99.90;;;;;;5069496;28;20044;-67